Heron — WDG2159 — position and weather

sailwx.info

Track history (hours):
 
Tides and Currents Weather Stations Pressure Air Temp Water Temp Dewpoint Dewpoint Depression Visibility Wind Speed Wind Dir Waves Ship Positions

Heron

Owner: Davies, Sanders, Norwalk, CT. More information available from US FCC via Universal Licensing System and Coast Guard Vessel Documentation Center.

Last reported at 2015-May-23 03:29 UTC. Time now 2015-Jul-02 18:16 UTC.
Position N 41°23' W 071°13'.
Warning: this ship's position is 40 days out of date.

Length 14 m.

Type: Sailing vessel. MMSI: 367512760.

Date/timePositionNaut miles runAvg speedWind from/ knotsBaromVisibWave heightAir tempDewpointWater temp
2015-May-23 03:29N 41°23' W 071°13'6 6.5
2015-May-23 02:33N 41°21' W 071°21'7 6.9
2015-May-23 01:33N 41°20' W 071°30'7 7.4
2015-May-23 00:33N 41°18' W 071°39'8 7.8
2015-May-22 23:33N 41°16' W 071°49'9 8.7
2015-May-22 22:33N 41°14' W 072°01'9 8.7
2015-May-22 21:33N 41°15' W 072°12'8 8.1
2015-May-22 20:33N 41°15' W 072°23'4 2.2
2015-May-22 18:33N 41°16' W 072°28'2 2.0
2015-May-22 17:32N 41°15' W 072°30'0 0.0
2015-May-22 16:32N 41°15' W 072°30'2 1.9
2015-May-22 15:33N 41°13' W 072°29'4 4.1
2015-May-22 14:33N 41°12' W 072°34'7 6.9
2015-May-22 13:33N 41°10' W 072°43'7 7.2
2015-May-22 12:33N 41°08' W 072°52'10 7.6
2015-May-22 11:11N 41°05' W 073°05'5 7.8
2015-May-22 10:33N 41°05' W 073°12'8 7.6
2015-May-22 09:33N 41°03' W 073°22'3 3.3
2015-May-22 08:33N 41°04' W 073°26'0 0.0
2015-May-21 21:32N 41°04' W 073°26'0 0.0
2015-May-20 20:25N 41°04' W 073°26'0 0.0
2015-May-20 16:32N 41°04' W 073°26'  
Track history (hours):
 
Tides and Currents Weather Stations Pressure Air Temp Water Temp Dewpoint Dewpoint Depression Visibility Wind Speed Wind Dir Waves Ship Positions

Heron

Owner: Davies, Sanders, Norwalk, CT. More information available from US FCC via Universal Licensing System and Coast Guard Vessel Documentation Center.

Last reported at 2015-May-23 03:29 UTC. Time now 2015-Jul-02 18:16 UTC.
Position N 41°23' W 071°13'.
Warning: this ship's position is 40 days out of date.

Length 14 m.

Type: Sailing vessel. MMSI: 367512760.

Date/timePositionNaut miles runAvg speedWind from/ knotsBaromVisibWave heightAir tempDewpointWater temp
2015-May-23 03:29N 41°23' W 071°13'6 6.5
2015-May-23 02:33N 41°21' W 071°21'7 6.9
2015-May-23 01:33N 41°20' W 071°30'7 7.4
2015-May-23 00:33N 41°18' W 071°39'8 7.8
2015-May-22 23:33N 41°16' W 071°49'9 8.7
2015-May-22 22:33N 41°14' W 072°01'9 8.7
2015-May-22 21:33N 41°15' W 072°12'8 8.1
2015-May-22 20:33N 41°15' W 072°23'4 2.2
2015-May-22 18:33N 41°16' W 072°28'2 2.0
2015-May-22 17:32N 41°15' W 072°30'0 0.0
2015-May-22 16:32N 41°15' W 072°30'2 1.9
2015-May-22 15:33N 41°13' W 072°29'4 4.1
2015-May-22 14:33N 41°12' W 072°34'7 6.9
2015-May-22 13:33N 41°10' W 072°43'7 7.2
2015-May-22 12:33N 41°08' W 072°52'10 7.6
2015-May-22 11:11N 41°05' W 073°05'5 7.8
2015-May-22 10:33N 41°05' W 073°12'8 7.6
2015-May-22 09:33N 41°03' W 073°22'3 3.3
2015-May-22 08:33N 41°04' W 073°26'0 0.0
2015-May-21 21:32N 41°04' W 073°26'0 0.0
2015-May-20 20:25N 41°04' W 073°26'0 0.0
2015-May-20 16:32N 41°04' W 073°26'  

Dump ship's entire track history